createdAt,value
2023-04-17T00:00:10.733Z,0.54
2023-04-17T00:01:10.819Z,0.61
2023-04-17T00:02:10.878Z,0.57
2023-04-17T00:03:10.905Z,0.58
2023-04-17T00:04:11.406Z,0.29
2023-04-17T00:05:10.945Z,0.47
2023-04-17T00:06:10.955Z,0.52
2023-04-17T00:07:10.959Z,0.35
2023-04-17T00:08:10.965Z,0.50
2023-04-17T00:09:11.152Z,0.63
2023-04-17T00:10:10.987Z,0.56
2023-04-17T00:11:11.017Z,0.36
2023-04-17T00:12:11.043Z,0.48
2023-04-17T00:13:11.030Z,0.42
2023-04-17T00:14:11.108Z,0.70
2023-04-17T00:15:11.085Z,0.49
2023-04-17T00:16:11.109Z,0.75
2023-04-17T00:17:11.099Z,0.58
2023-04-17T00:18:11.078Z,0.36
2023-04-17T00:19:11.296Z,0.52
2023-04-17T00:20:11.160Z,0.58
2023-04-17T00:21:11.107Z,0.48
2023-04-17T00:22:11.106Z,0.81
2023-04-17T00:23:11.117Z,0.62
2023-04-17T00:24:11.097Z,0.56
2023-04-17T00:25:11.137Z,0.44
2023-04-17T00:26:11.081Z,0.51
2023-04-17T00:27:11.120Z,0.45
2023-04-17T00:28:11.102Z,0.66
2023-04-17T00:29:11.290Z,0.38
2023-04-17T00:30:11.160Z,0.46
2023-04-17T00:31:11.123Z,0.59
2023-04-17T00:32:11.203Z,0.71
2023-04-17T00:33:11.123Z,0.59
2023-04-17T00:34:11.142Z,0.68
2023-04-17T00:35:11.133Z,0.69
2023-04-17T00:36:11.135Z,0.50
2023-04-17T00:37:11.183Z,0.68
2023-04-17T00:38:11.176Z,0.45
2023-04-17T00:39:11.390Z,0.45
2023-04-17T00:40:11.151Z,0.54
2023-04-17T00:41:11.186Z,0.57
2023-04-17T00:42:11.160Z,0.51
2023-04-17T00:43:11.145Z,0.66
2023-04-17T00:44:11.148Z,0.53
2023-04-17T00:45:11.161Z,0.51
2023-04-17T00:46:11.188Z,0.35
2023-04-17T00:47:11.118Z,0.70
2023-04-17T00:48:11.261Z,0.47
2023-04-17T00:49:11.386Z,0.54
2023-04-17T00:50:11.273Z,0.63
2023-04-17T00:51:11.216Z,0.38
2023-04-17T00:52:11.200Z,0.65
2023-04-17T00:53:11.228Z,0.49
2023-04-17T00:54:11.202Z,0.57
2023-04-17T00:55:11.198Z,0.58
2023-04-17T00:56:11.203Z,0.51
2023-04-17T00:57:11.194Z,0.53
2023-04-17T00:58:11.202Z,0.41
2023-04-17T00:59:11.363Z,0.71
2023-04-17T01:00:11.224Z,0.69
2023-04-17T01:01:11.268Z,0.57
2023-04-17T01:02:11.257Z,0.40
2023-04-17T01:03:11.384Z,0.68
2023-04-17T01:04:11.421Z,0.43
2023-04-17T01:05:11.221Z,0.53
2023-04-17T01:06:11.214Z,0.53
2023-04-17T01:07:11.172Z,0.65
2023-04-17T01:08:11.195Z,0.43
2023-04-17T01:09:11.458Z,0.40
2023-04-17T01:10:11.177Z,0.37
2023-04-17T01:11:11.189Z,0.48
2023-04-17T01:12:11.190Z,0.66
2023-04-17T01:13:11.232Z,0.46
2023-04-17T01:14:11.209Z,0.52
2023-04-17T01:15:11.250Z,0.45
2023-04-17T01:16:11.238Z,0.46
2023-04-17T01:17:11.329Z,0.57
2023-04-17T01:18:11.269Z,0.48
2023-04-17T01:19:11.492Z,0.22
2023-04-17T01:20:11.244Z,0.46
2023-04-17T01:21:11.226Z,0.51
2023-04-17T01:22:11.340Z,0.51
2023-04-17T01:23:11.185Z,0.57
2023-04-17T01:24:11.248Z,0.50
2023-04-17T01:25:11.205Z,0.60
2023-04-17T01:26:11.179Z,0.70
2023-04-17T01:27:11.188Z,0.64
2023-04-17T01:28:11.186Z,0.53
2023-04-17T01:29:11.421Z,0.64
2023-04-17T01:30:11.216Z,0.58
2023-04-17T01:31:11.262Z,0.48
2023-04-17T01:32:11.246Z,0.53
2023-04-17T01:33:11.245Z,0.67
2023-04-17T01:34:11.245Z,0.39
2023-04-17T01:35:11.236Z,0.74
2023-04-17T01:36:11.261Z,0.58
2023-04-17T01:37:11.203Z,0.47
2023-04-17T01:38:11.185Z,0.47
2023-04-17T01:39:11.478Z,0.45
2023-04-17T01:40:11.215Z,0.52
2023-04-17T01:41:11.528Z,0.72
2023-04-17T01:42:11.204Z,0.71
2023-04-17T01:43:11.252Z,0.40
2023-04-17T01:44:11.245Z,0.52
2023-04-17T01:45:11.235Z,0.55
2023-04-17T01:46:11.376Z,0.53
2023-04-17T01:47:11.253Z,0.62
2023-04-17T01:48:11.273Z,0.52
2023-04-17T01:49:11.481Z,0.61
2023-04-17T01:50:11.332Z,0.46
2023-04-17T01:51:11.298Z,0.46
2023-04-17T01:52:11.303Z,0.45
2023-04-17T01:53:11.306Z,0.41
2023-04-17T01:54:11.317Z,0.47
2023-04-17T01:55:11.304Z,0.24
2023-04-17T01:56:11.324Z,0.65
2023-04-17T01:57:11.320Z,0.65
2023-04-17T01:58:11.338Z,0.46
2023-04-17T01:59:11.646Z,0.49
2023-04-17T02:00:11.302Z,0.52
2023-04-17T02:01:11.326Z,0.53
2023-04-17T02:02:11.448Z,0.42
2023-04-17T02:03:11.408Z,0.49
2023-04-17T02:04:11.421Z,0.53
2023-04-17T02:05:11.324Z,0.56
2023-04-17T02:06:11.372Z,0.60
2023-04-17T02:07:11.347Z,0.64
2023-04-17T02:08:11.329Z,0.48
2023-04-17T02:09:11.378Z,0.55
2023-04-17T02:10:11.368Z,0.71
2023-04-17T02:11:11.375Z,0.39
2023-04-17T02:12:11.372Z,0.55
2023-04-17T02:13:11.388Z,0.51
2023-04-17T02:14:11.379Z,0.45
2023-04-17T02:15:11.356Z,0.44
2023-04-17T02:16:11.390Z,0.63
2023-04-17T02:17:11.379Z,0.44
2023-04-17T02:18:11.344Z,0.30
2023-04-17T02:19:11.497Z,0.43
2023-04-17T02:20:11.369Z,0.67
2023-04-17T02:21:11.405Z,0.30
2023-04-17T02:22:11.401Z,0.74
2023-04-17T02:23:11.378Z,0.57
2023-04-17T02:24:11.393Z,0.42
2023-04-17T02:25:11.418Z,0.51
2023-04-17T02:26:11.421Z,0.53
2023-04-17T02:27:11.401Z,0.70
2023-04-17T02:28:11.421Z,0.53
2023-04-17T02:29:11.678Z,0.31
2023-04-17T02:30:11.409Z,0.51
2023-04-17T02:31:11.461Z,0.53
2023-04-17T02:32:11.480Z,0.79
2023-04-17T02:33:11.449Z,0.57
2023-04-17T02:34:11.459Z,0.60
2023-04-17T02:35:11.422Z,0.46
2023-04-17T02:36:11.442Z,0.41
2023-04-17T02:37:11.499Z,0.55
2023-04-17T02:38:11.490Z,0.73
2023-04-17T02:39:11.681Z,0.39
2023-04-17T02:40:11.488Z,0.67
2023-04-17T02:41:11.512Z,0.38
2023-04-17T02:42:11.463Z,0.55
2023-04-17T02:43:11.493Z,0.43
2023-04-17T02:44:11.554Z,0.41
2023-04-17T02:45:11.547Z,0.63
2023-04-17T02:46:11.614Z,0.66
2023-04-17T02:47:11.552Z,0.45
2023-04-17T02:48:11.558Z,0.65
2023-04-17T02:49:11.885Z,0.40
2023-04-17T02:50:11.526Z,0.48
2023-04-17T02:51:11.533Z,0.53
2023-04-17T02:52:11.565Z,0.81
2023-04-17T02:53:11.516Z,0.46
2023-04-17T02:54:11.531Z,0.79
2023-04-17T02:55:11.541Z,0.51
2023-04-17T02:56:11.541Z,0.40
2023-04-17T02:57:11.566Z,0.46
2023-04-17T02:58:11.566Z,0.57
2023-04-17T02:59:11.698Z,0.40
2023-04-17T03:00:11.559Z,0.44
2023-04-17T03:01:11.629Z,0.63
2023-04-17T03:02:11.637Z,0.49
2023-04-17T03:03:11.738Z,0.52
2023-04-17T03:04:11.621Z,0.41
2023-04-17T03:05:11.646Z,0.60
2023-04-17T03:06:11.630Z,0.52
2023-04-17T03:07:11.669Z,0.27
2023-04-17T03:08:11.646Z,0.36
2023-04-17T03:09:11.935Z,0.62
2023-04-17T03:10:11.679Z,0.51
2023-04-17T03:11:11.694Z,0.43
2023-04-17T03:12:11.739Z,0.42
2023-04-17T03:13:11.706Z,0.51
2023-04-17T03:14:11.743Z,0.55
2023-04-17T03:15:11.828Z,0.38
2023-04-17T03:16:11.846Z,0.51
2023-04-17T03:17:11.829Z,0.47
2023-04-17T03:18:11.835Z,0.34
2023-04-17T03:19:12.117Z,0.37
2023-04-17T03:20:11.838Z,0.53
2023-04-17T03:21:11.846Z,0.66
2023-04-17T03:22:13.394Z,0.60
2023-04-17T03:23:11.882Z,0.39
2023-04-17T03:24:11.856Z,0.38
2023-04-17T03:25:11.870Z,0.45
2023-04-17T03:26:11.869Z,0.38
2023-04-17T03:27:11.879Z,0.31
2023-04-17T03:28:11.942Z,0.52
2023-04-17T03:29:12.236Z,0.67
2023-04-17T03:30:11.981Z,0.52
2023-04-17T03:31:11.982Z,0.43
2023-04-17T03:32:12.083Z,0.37
2023-04-17T03:33:11.973Z,0.59
2023-04-17T03:34:11.999Z,0.40
2023-04-17T03:35:12.009Z,0.41
2023-04-17T03:36:12.088Z,0.54
2023-04-17T03:37:11.999Z,0.43
2023-04-17T03:38:12.034Z,0.62
2023-04-17T03:39:12.253Z,0.43
2023-04-17T03:40:12.074Z,0.50
2023-04-17T03:41:12.197Z,0.41
2023-04-17T03:42:12.212Z,2.12
2023-04-17T03:43:12.228Z,0.54
2023-04-17T03:44:12.265Z,0.45
2023-04-17T03:45:12.256Z,0.50
2023-04-17T03:46:12.296Z,0.42
2023-04-17T03:47:12.266Z,0.65
2023-04-17T03:48:12.277Z,0.38
2023-04-17T03:49:12.642Z,0.45
2023-04-17T03:50:12.295Z,0.57
2023-04-17T03:51:12.330Z,0.63
2023-04-17T03:52:12.382Z,0.42
2023-04-17T03:53:12.344Z,0.43
2023-04-17T03:54:12.380Z,0.40
2023-04-17T03:55:12.490Z,0.46
2023-04-17T03:56:12.447Z,0.47
2023-04-17T03:57:12.435Z,0.43
2023-04-17T03:58:12.456Z,0.60
2023-04-17T03:59:12.635Z,0.44
2023-04-17T04:00:12.535Z,0.61
2023-04-17T04:01:12.558Z,0.46
2023-04-17T04:02:12.651Z,0.48
2023-04-17T04:03:12.683Z,0.39
2023-04-17T04:04:12.688Z,0.47
2023-04-17T04:05:12.631Z,0.49
2023-04-17T04:06:12.635Z,0.35
2023-04-17T04:07:12.616Z,0.50
2023-04-17T04:08:12.630Z,0.44
2023-04-17T04:09:12.736Z,0.49
2023-04-17T04:10:13.566Z,0.43
2023-04-17T04:11:12.645Z,0.25
2023-04-17T04:12:12.671Z,0.28
2023-04-17T04:13:12.669Z,0.47
2023-04-17T04:14:12.701Z,0.70
2023-04-17T04:15:12.762Z,0.55
2023-04-17T04:16:12.913Z,0.49
2023-04-17T04:17:12.793Z,0.56
2023-04-17T04:18:12.795Z,0.54
2023-04-17T04:19:12.957Z,0.36
2023-04-17T04:20:12.830Z,0.53
2023-04-17T04:21:12.860Z,0.54
2023-04-17T04:22:12.878Z,0.45
2023-04-17T04:23:12.871Z,0.67
2023-04-17T04:24:12.875Z,0.55
2023-04-17T04:25:12.874Z,0.48
2023-04-17T04:26:12.904Z,0.54
2023-04-17T04:27:12.948Z,0.45
2023-04-17T04:28:12.936Z,0.31
2023-04-17T04:29:13.068Z,0.45
2023-04-17T04:30:12.974Z,0.46
2023-04-17T04:31:12.970Z,0.50
2023-04-17T04:32:12.921Z,0.40
2023-04-17T04:33:12.952Z,0.52
2023-04-17T04:34:12.992Z,0.51
2023-04-17T04:35:13.041Z,0.51
2023-04-17T04:36:13.049Z,0.44
2023-04-17T04:37:13.034Z,0.45
2023-04-17T04:38:13.032Z,0.47
2023-04-17T04:39:13.334Z,0.34
2023-04-17T04:40:13.078Z,0.55
2023-04-17T04:41:13.114Z,0.46
2023-04-17T04:42:13.095Z,0.50
2023-04-17T04:43:13.126Z,0.43
2023-04-17T04:44:13.126Z,0.50
2023-04-17T04:45:13.228Z,0.46
2023-04-17T04:46:13.196Z,0.36
2023-04-17T04:47:13.158Z,0.59
2023-04-17T04:48:13.163Z,0.55
2023-04-17T04:49:13.354Z,0.40
2023-04-17T04:50:13.222Z,0.53
2023-04-17T04:51:13.233Z,0.44
2023-04-17T04:52:13.270Z,0.61
2023-04-17T04:53:13.279Z,0.72
2023-04-17T04:54:13.296Z,0.35
2023-04-17T04:55:13.289Z,0.65
2023-04-17T04:56:13.301Z,0.93
2023-04-17T04:57:13.334Z,0.70
2023-04-17T04:58:13.332Z,0.59
2023-04-17T04:59:13.460Z,0.67
2023-04-17T05:00:13.304Z,0.38
2023-04-17T05:01:13.749Z,0.54
2023-04-17T05:02:13.460Z,0.50
2023-04-17T05:03:13.567Z,0.75
2023-04-17T05:04:13.455Z,0.48
2023-04-17T05:05:13.380Z,0.42
2023-04-17T05:06:13.383Z,0.61
2023-04-17T05:07:13.411Z,0.49
2023-04-17T05:08:13.426Z,0.43
2023-04-17T05:09:15.483Z,0.48
2023-04-17T05:10:13.387Z,0.48
2023-04-17T05:11:13.374Z,0.49
2023-04-17T05:12:13.394Z,0.35
2023-04-17T05:13:13.364Z,0.41
2023-04-17T05:14:13.370Z,0.54
2023-04-17T05:15:13.361Z,0.36
2023-04-17T05:16:13.353Z,0.37
2023-04-17T05:17:13.331Z,0.31
2023-04-17T05:18:13.362Z,0.46
2023-04-17T05:19:13.604Z,0.36
2023-04-17T05:20:13.325Z,0.62
2023-04-17T05:21:13.359Z,0.42
2023-04-17T05:22:13.338Z,0.55
2023-04-17T05:23:13.318Z,0.40
2023-04-17T05:24:13.305Z,0.33
2023-04-17T05:25:13.285Z,0.33
2023-04-17T05:26:13.317Z,0.45
2023-04-17T05:27:13.295Z,0.52
2023-04-17T05:28:15.466Z,0.43
2023-04-17T05:29:13.535Z,0.45
2023-04-17T05:30:13.248Z,0.73
2023-04-17T05:31:13.315Z,0.38
2023-04-17T05:32:13.253Z,0.47
2023-04-17T05:33:13.238Z,0.65
2023-04-17T05:34:13.206Z,0.54
2023-04-17T05:35:13.222Z,0.35
2023-04-17T05:36:13.242Z,0.35
2023-04-17T05:37:13.227Z,0.64
2023-04-17T05:38:13.226Z,0.43
2023-04-17T05:39:13.441Z,0.47
2023-04-17T05:40:13.202Z,0.49
2023-04-17T05:41:13.614Z,0.53
2023-04-17T05:42:13.172Z,0.66
2023-04-17T05:43:13.187Z,0.65
2023-04-17T05:44:13.169Z,0.63
2023-04-17T05:45:13.191Z,0.66
2023-04-17T05:46:13.676Z,0.57
2023-04-17T05:47:13.162Z,0.71
2023-04-17T05:48:13.170Z,0.60
2023-04-17T05:49:13.296Z,0.85
2023-04-17T05:50:13.142Z,0.67
2023-04-17T05:51:13.599Z,0.69
2023-04-17T05:52:13.094Z,0.85
2023-04-17T05:53:13.103Z,1.18
2023-04-17T05:54:13.151Z,1.14
2023-04-17T05:55:13.097Z,0.98
2023-04-17T05:56:13.120Z,0.75
2023-04-17T05:57:13.085Z,1.13
2023-04-17T05:59:13.239Z,2.11
2023-04-17T06:00:13.210Z,2.09
2023-04-17T06:01:13.070Z,1.13
2023-04-17T06:02:13.084Z,1.66
2023-04-17T06:03:13.200Z,1.92
2023-04-17T06:04:13.395Z,5.32
2023-04-17T06:05:13.198Z,1.53
2023-04-17T06:06:13.020Z,2.53
2023-04-17T06:07:13.041Z,1.23
2023-04-17T06:08:13.024Z,1.46
2023-04-17T06:09:13.119Z,1.81
2023-04-17T06:10:12.986Z,2.15
2023-04-17T06:11:13.029Z,2.40
2023-04-17T06:12:12.988Z,1.51
2023-04-17T06:13:12.960Z,1.47
2023-04-17T06:14:13.000Z,1.74
2023-04-17T06:15:12.968Z,1.97
2023-04-17T06:16:12.956Z,2.10
2023-04-17T06:17:13.013Z,1.78
2023-04-17T06:18:12.946Z,1.67
2023-04-17T06:19:13.000Z,1.62
2023-04-17T06:20:12.936Z,1.86
2023-04-17T06:21:12.925Z,1.58
2023-04-17T06:22:12.958Z,1.56
2023-04-17T06:23:12.937Z,2.03
2023-04-17T06:24:12.908Z,1.17
2023-04-17T06:25:12.884Z,1.91
2023-04-17T06:26:12.896Z,1.20
2023-04-17T06:27:12.884Z,2.01
2023-04-17T06:28:12.884Z,2.06
2023-04-17T06:29:13.070Z,1.28
2023-04-17T06:30:12.847Z,1.71
2023-04-17T06:31:12.917Z,2.11
2023-04-17T06:32:13.042Z,1.34
2023-04-17T06:33:12.840Z,1.83
2023-04-17T06:34:12.861Z,1.48
2023-04-17T06:35:12.860Z,2.02
2023-04-17T06:36:12.830Z,2.25
2023-04-17T06:37:12.799Z,2.16
2023-04-17T06:38:12.807Z,2.40
2023-04-17T06:39:13.298Z,2.12
2023-04-17T06:40:12.797Z,1.64
2023-04-17T06:41:12.790Z,1.85
2023-04-17T06:42:13.114Z,1.84
2023-04-17T06:43:12.760Z,1.96
2023-04-17T06:44:12.782Z,3.05
2023-04-17T06:45:12.757Z,2.19
2023-04-17T06:46:12.796Z,2.91
2023-04-17T06:47:13.163Z,2.47
2023-04-17T06:48:12.736Z,1.66
2023-04-17T06:49:12.909Z,3.31
2023-04-17T06:50:12.732Z,2.03
2023-04-17T06:51:12.713Z,3.74
2023-04-17T06:52:13.170Z,3.18
2023-04-17T06:53:12.725Z,4.36
2023-04-17T06:54:12.694Z,3.58
2023-04-17T06:55:12.720Z,3.99
2023-04-17T06:56:12.668Z,4.12
2023-04-17T06:57:12.675Z,3.69
2023-04-17T06:58:12.702Z,3.64
2023-04-17T06:59:12.745Z,3.15
2023-04-17T07:00:12.663Z,3.68
2023-04-17T07:01:12.684Z,3.35
2023-04-17T07:02:12.748Z,4.64
2023-04-17T07:03:12.718Z,4.34
2023-04-17T07:04:12.853Z,5.32
2023-04-17T07:05:12.640Z,2.80
2023-04-17T07:06:12.595Z,4.31
2023-04-17T07:07:12.623Z,2.52
2023-04-17T07:08:12.589Z,3.65
2023-04-17T07:09:12.839Z,2.72
2023-04-17T07:10:12.681Z,2.55
2023-04-17T07:11:12.750Z,2.46
2023-04-17T07:12:12.813Z,3.51
2023-04-17T07:13:12.860Z,2.92
2023-04-17T07:14:13.184Z,2.78
2023-04-17T07:15:12.995Z,2.60
2023-04-17T07:16:13.072Z,2.92
2023-04-17T07:17:13.119Z,2.95
2023-04-17T07:18:13.167Z,2.55
2023-04-17T07:19:13.454Z,1.96
2023-04-17T07:20:13.365Z,2.63
2023-04-17T07:21:13.309Z,3.39
2023-04-17T07:22:13.407Z,1.38
2023-04-17T07:23:13.462Z,2.03
2023-04-17T07:24:13.512Z,2.09
2023-04-17T07:25:13.533Z,1.28
2023-04-17T07:26:13.597Z,1.65
2023-04-17T07:27:13.665Z,1.96
2023-04-17T07:28:13.701Z,1.80
2023-04-17T07:29:14.144Z,2.20
2023-04-17T07:30:13.763Z,2.10
2023-04-17T07:31:13.812Z,1.33
2023-04-17T07:32:13.878Z,1.97
2023-04-17T07:33:14.892Z,1.64
2023-04-17T07:34:13.849Z,1.74
2023-04-17T07:35:13.829Z,1.46
2023-04-17T07:36:13.833Z,1.19
2023-04-17T07:37:13.828Z,2.00
2023-04-17T07:38:13.816Z,1.28
2023-04-17T07:39:13.956Z,1.33
2023-04-17T07:40:13.812Z,1.44
2023-04-17T07:41:14.678Z,2.23
2023-04-17T07:42:14.146Z,1.41
2023-04-17T07:43:13.785Z,1.71
2023-04-17T07:44:13.785Z,2.06
2023-04-17T07:45:13.787Z,1.77
2023-04-17T07:46:13.925Z,1.42
2023-04-17T07:47:13.890Z,1.64
2023-04-17T07:48:13.968Z,1.74
2023-04-17T07:49:14.238Z,2.49
2023-04-17T07:50:13.934Z,1.70
2023-04-17T07:51:13.970Z,1.59
2023-04-17T07:52:14.003Z,1.99
2023-04-17T07:53:14.034Z,1.43
2023-04-17T07:54:14.064Z,1.76
2023-04-17T07:55:14.109Z,1.67
2023-04-17T07:56:14.153Z,1.52
2023-04-17T07:57:14.194Z,1.68
2023-04-17T07:58:14.232Z,2.21
2023-04-17T07:59:14.450Z,1.94
2023-04-17T08:00:14.391Z,1.96
2023-04-17T08:01:14.433Z,1.75
2023-04-17T08:02:14.518Z,2.51
2023-04-17T08:03:14.700Z,2.15
2023-04-17T08:04:14.775Z,1.54
2023-04-17T08:05:14.672Z,1.53
2023-04-17T08:06:14.615Z,1.69
2023-04-17T08:07:14.631Z,1.51
2023-04-17T08:08:14.609Z,1.84
2023-04-17T08:09:14.675Z,1.76
2023-04-17T08:10:14.599Z,1.51
2023-04-17T08:11:14.596Z,1.46
2023-04-17T08:12:14.624Z,1.34
2023-04-17T08:13:14.640Z,1.54
2023-04-17T08:14:14.635Z,1.33
2023-04-17T08:15:14.651Z,1.86
2023-04-17T08:16:14.726Z,1.83
2023-04-17T08:17:14.666Z,1.85
2023-04-17T08:18:14.692Z,2.03
2023-04-17T08:19:14.716Z,1.73
2023-04-17T08:20:14.688Z,1.58
2023-04-17T08:21:14.684Z,1.48
2023-04-17T08:22:14.728Z,1.88
2023-04-17T08:23:14.743Z,1.63
2023-04-17T08:24:15.441Z,1.75
2023-04-17T08:25:14.792Z,1.81
2023-04-17T08:26:14.782Z,1.71
2023-04-17T08:27:14.822Z,1.92
2023-04-17T08:28:14.840Z,1.77
2023-04-17T08:29:15.203Z,1.19
2023-04-17T08:30:18.060Z,1.70
2023-04-17T08:31:14.864Z,1.35
2023-04-17T08:32:15.585Z,1.66
2023-04-17T08:33:14.829Z,1.77
2023-04-17T08:34:15.688Z,1.78
2023-04-17T08:35:14.842Z,2.02
2023-04-17T08:36:14.812Z,1.68
2023-04-17T08:37:15.223Z,1.60
2023-04-17T08:38:14.876Z,1.29
2023-04-17T08:39:15.019Z,1.22
2023-04-17T08:40:14.968Z,1.74
2023-04-17T08:41:14.791Z,1.50
2023-04-17T08:42:18.579Z,1.85
2023-04-17T08:43:14.780Z,1.62
2023-04-17T08:44:14.797Z,1.29
2023-04-17T08:45:14.790Z,2.02
2023-04-17T08:46:14.802Z,1.93
2023-04-17T08:47:14.765Z,2.34
2023-04-17T08:48:14.729Z,2.54
2023-04-17T08:49:14.797Z,2.49
2023-04-17T08:50:14.796Z,3.17
2023-04-17T08:51:14.743Z,3.34
2023-04-17T08:52:15.186Z,4.28
2023-04-17T08:53:14.734Z,3.79
2023-04-17T08:54:14.733Z,4.41
2023-04-17T08:55:14.721Z,4.19
2023-04-17T08:56:14.707Z,4.76
2023-04-17T08:57:14.695Z,5.58
2023-04-17T08:58:14.737Z,6.22
2023-04-17T08:59:14.723Z,5.50
2023-04-17T09:00:14.683Z,6.10
2023-04-17T09:01:14.691Z,5.44
2023-04-17T09:02:14.804Z,4.41
2023-04-17T09:03:14.939Z,5.17
2023-04-17T09:04:14.884Z,5.79
2023-04-17T09:05:14.667Z,4.09
2023-04-17T09:06:14.635Z,4.00
2023-04-17T09:07:14.652Z,6.61
2023-04-17T09:08:14.664Z,4.32
2023-04-17T09:09:14.619Z,3.85
2023-04-17T09:10:14.607Z,3.84
2023-04-17T09:11:14.632Z,3.21
2023-04-17T09:12:14.645Z,3.35
2023-04-17T09:13:14.720Z,3.34
2023-04-17T09:14:14.630Z,3.59
2023-04-17T09:15:14.687Z,3.97
2023-04-17T09:16:14.737Z,3.50
2023-04-17T09:17:14.704Z,3.04
2023-04-17T09:18:14.752Z,3.59
2023-04-17T09:19:14.733Z,2.69
2023-04-17T09:20:14.769Z,3.23
2023-04-17T09:21:14.771Z,3.21
2023-04-17T09:22:14.794Z,3.26
2023-04-17T09:23:14.790Z,2.32
2023-04-17T09:24:14.821Z,3.84
2023-04-17T09:25:14.815Z,3.34
2023-04-17T09:26:14.881Z,2.74
2023-04-17T09:27:15.209Z,3.77
2023-04-17T09:28:14.862Z,2.65
2023-04-17T09:29:15.092Z,2.41
2023-04-17T09:30:14.936Z,2.70
2023-04-17T09:31:14.918Z,3.45
2023-04-17T09:32:14.908Z,2.84
2023-04-17T09:33:14.900Z,2.37
2023-04-17T09:34:14.893Z,2.19
2023-04-17T09:35:15.031Z,2.42
2023-04-17T09:36:14.954Z,2.29
2023-04-17T09:37:14.953Z,2.22
2023-04-17T09:38:15.230Z,2.68
2023-04-17T09:39:14.972Z,2.64
2023-04-17T09:40:15.078Z,3.52
2023-04-17T09:41:15.042Z,3.22
2023-04-17T09:42:15.096Z,3.48
2023-04-17T09:43:15.180Z,3.61
2023-04-17T09:44:15.228Z,2.75
2023-04-17T09:45:15.124Z,2.94
2023-04-17T09:46:15.238Z,2.94
2023-04-17T09:47:15.124Z,4.19
2023-04-17T09:48:15.221Z,4.12
2023-04-17T09:49:15.167Z,3.94
2023-04-17T09:50:15.162Z,4.51
2023-04-17T09:51:15.186Z,3.62
2023-04-17T09:52:15.195Z,4.04
2023-04-17T09:53:15.241Z,4.37
2023-04-17T09:54:15.404Z,4.59
2023-04-17T09:55:15.298Z,3.93
2023-04-17T09:56:15.279Z,3.03
2023-04-17T09:57:15.296Z,3.63
2023-04-17T09:58:15.348Z,3.84
2023-04-17T09:59:15.339Z,4.75
2023-04-17T10:00:15.363Z,4.05
2023-04-17T10:01:15.394Z,3.56
2023-04-17T10:02:15.523Z,3.11
2023-04-17T10:03:15.583Z,4.69
2023-04-17T10:04:15.661Z,4.16
2023-04-17T10:05:15.552Z,3.98
2023-04-17T10:06:15.571Z,3.69
2023-04-17T10:07:15.597Z,3.38
2023-04-17T10:08:15.590Z,3.03
2023-04-17T10:09:15.598Z,3.42
2023-04-17T10:10:15.593Z,2.89
2023-04-17T10:11:15.722Z,5.21
2023-04-17T10:12:15.828Z,4.28
2023-04-17T10:13:15.850Z,2.67
2023-04-17T10:14:15.810Z,3.08
2023-04-17T10:15:15.862Z,3.82
2023-04-17T10:16:15.871Z,3.27
2023-04-17T10:17:15.830Z,3.66
2023-04-17T10:18:16.244Z,3.57
2023-04-17T10:19:16.046Z,2.91
2023-04-17T10:20:16.073Z,3.68
2023-04-17T10:21:16.043Z,3.42
2023-04-17T10:22:16.068Z,3.20
2023-04-17T10:23:16.064Z,2.94
2023-04-17T10:24:16.073Z,4.32
2023-04-17T10:25:16.061Z,4.00
2023-04-17T10:26:16.122Z,3.66
2023-04-17T10:27:16.147Z,2.99
2023-04-17T10:28:16.149Z,3.88
2023-04-17T10:29:16.200Z,4.90
2023-04-17T10:30:16.301Z,3.34
2023-04-17T10:31:16.268Z,3.42
2023-04-17T10:32:16.435Z,4.13
2023-04-17T10:33:16.255Z,3.30
2023-04-17T10:34:16.260Z,3.22
2023-04-17T10:35:16.434Z,4.54
2023-04-17T10:36:16.288Z,4.21
2023-04-17T10:37:16.286Z,5.01
2023-04-17T10:38:16.711Z,4.77
2023-04-17T10:39:16.487Z,4.50
2023-04-17T10:40:16.476Z,3.67
2023-04-17T10:41:16.445Z,4.05
2023-04-17T10:42:16.481Z,5.33
2023-04-17T10:43:16.482Z,4.30
2023-04-17T10:44:16.458Z,7.38
2023-04-17T10:45:16.522Z,6.07
2023-04-17T10:46:16.562Z,6.98
2023-04-17T10:47:16.526Z,5.50
2023-04-17T10:48:16.584Z,6.55
2023-04-17T10:49:16.537Z,5.43
2023-04-17T10:50:16.554Z,5.43
2023-04-17T10:51:16.621Z,4.88
2023-04-17T10:52:16.592Z,5.55
2023-04-17T10:53:16.627Z,4.34
2023-04-17T10:54:16.601Z,5.04
2023-04-17T10:55:16.574Z,5.00
2023-04-17T10:56:16.594Z,4.45
2023-04-17T10:57:16.667Z,4.69
2023-04-17T10:58:16.760Z,4.50
2023-04-17T10:59:16.999Z,4.48
2023-04-17T11:00:16.770Z,3.57
2023-04-17T11:01:16.806Z,4.14
2023-04-17T11:02:16.877Z,3.07
2023-04-17T11:03:17.051Z,3.40
2023-04-17T11:04:16.899Z,2.90
2023-04-17T11:05:16.894Z,2.95
2023-04-17T11:06:16.891Z,3.10
2023-04-17T11:07:16.907Z,3.20
2023-04-17T11:08:16.931Z,2.94
2023-04-17T11:09:17.279Z,2.45
2023-04-17T11:10:16.913Z,2.57
2023-04-17T11:11:20.825Z,2.66
2023-04-17T11:12:17.924Z,2.49
2023-04-17T11:13:16.932Z,2.24
2023-04-17T11:14:16.875Z,2.46
2023-04-17T11:15:16.922Z,1.79
2023-04-17T11:16:16.880Z,2.38
2023-04-17T11:17:16.869Z,2.09
2023-04-17T11:18:16.899Z,1.83
2023-04-17T11:19:16.874Z,1.72
2023-04-17T11:20:16.868Z,1.97
2023-04-17T11:21:16.877Z,1.58
2023-04-17T11:22:16.867Z,2.08
2023-04-17T11:23:16.862Z,2.23
2023-04-17T11:24:16.844Z,1.65
2023-04-17T11:25:16.864Z,2.24
2023-04-17T11:26:16.838Z,1.52
2023-04-17T11:27:16.833Z,1.72
2023-04-17T11:28:16.838Z,2.11
2023-04-17T11:29:16.992Z,1.86
2023-04-17T11:30:16.813Z,2.41
2023-04-17T11:31:19.036Z,1.82
2023-04-17T11:32:16.802Z,1.74
2023-04-17T11:33:17.255Z,2.34
2023-04-17T11:34:16.786Z,2.37
2023-04-17T11:35:16.763Z,2.37
2023-04-17T11:36:16.765Z,3.01
2023-04-17T11:37:16.813Z,2.41
2023-04-17T11:38:16.721Z,2.45
2023-04-17T11:39:16.747Z,2.50
2023-04-17T11:40:16.706Z,2.84
2023-04-17T11:41:16.705Z,3.03
2023-04-17T11:42:16.710Z,2.80
2023-04-17T11:43:16.717Z,3.46
2023-04-17T11:44:16.774Z,2.82
2023-04-17T11:45:16.706Z,2.59
2023-04-17T11:46:16.721Z,2.68
2023-04-17T11:47:16.701Z,3.90
2023-04-17T11:48:16.734Z,2.94
2023-04-17T11:49:16.685Z,2.85
2023-04-17T11:50:16.696Z,2.05
2023-04-17T11:51:16.640Z,2.67
2023-04-17T11:52:18.050Z,3.39
2023-04-17T11:53:16.652Z,3.29
2023-04-17T11:54:16.652Z,2.62
2023-04-17T11:55:16.661Z,1.82
2023-04-17T11:56:16.629Z,2.80
2023-04-17T11:57:23.656Z,2.72
2023-04-17T11:58:16.608Z,2.97
2023-04-17T11:59:16.611Z,2.51
2023-04-17T12:00:16.617Z,2.27
2023-04-17T12:01:16.589Z,2.16
2023-04-17T12:02:16.719Z,2.78
2023-04-17T12:03:16.845Z,1.73
2023-04-17T12:04:17.087Z,2.24
2023-04-17T12:05:16.640Z,2.55
2023-04-17T12:06:16.546Z,2.79
2023-04-17T12:07:16.561Z,2.48
2023-04-17T12:08:16.610Z,1.92
2023-04-17T12:09:16.553Z,2.14
2023-04-17T12:10:16.547Z,1.50
2023-04-17T12:11:17.306Z,1.73
2023-04-17T12:12:16.560Z,1.65
2023-04-17T12:13:16.499Z,1.67
2023-04-17T12:14:16.488Z,1.54
2023-04-17T12:15:16.526Z,1.57
2023-04-17T12:16:16.597Z,1.65
2023-04-17T12:17:16.547Z,2.12
2023-04-17T12:18:16.489Z,2.42
2023-04-17T12:19:16.474Z,2.39
2023-04-17T12:20:16.490Z,1.96
2023-04-17T12:21:16.451Z,1.85
2023-04-17T12:22:16.473Z,2.33
2023-04-17T12:23:16.816Z,1.78
2023-04-17T12:24:16.438Z,2.78
2023-04-17T12:25:16.438Z,1.95
2023-04-17T12:26:16.452Z,2.04
2023-04-17T12:27:16.404Z,1.84
2023-04-17T12:28:16.425Z,2.00
2023-04-17T12:29:16.424Z,1.84
2023-04-17T12:30:16.484Z,1.90
2023-04-17T12:31:16.556Z,1.67
2023-04-17T12:32:16.620Z,2.07
2023-04-17T12:33:16.706Z,2.16
2023-04-17T12:34:16.738Z,1.96
2023-04-17T12:35:16.787Z,1.87
2023-04-17T12:36:16.943Z,1.77
2023-04-17T12:37:16.901Z,1.38
2023-04-17T12:38:16.935Z,1.43
2023-04-17T12:39:17.061Z,1.71
2023-04-17T12:40:17.060Z,1.69
2023-04-17T12:41:17.144Z,1.21
2023-04-17T12:42:17.220Z,1.21
2023-04-17T12:43:17.274Z,1.48
2023-04-17T12:44:17.277Z,1.73
2023-04-17T12:45:17.298Z,1.53
2023-04-17T12:46:17.342Z,1.34
2023-04-17T12:47:17.357Z,1.47
2023-04-17T12:48:17.346Z,1.28
2023-04-17T12:49:17.370Z,1.53
2023-04-17T12:50:17.326Z,1.34
2023-04-17T12:51:17.322Z,1.35
2023-04-17T12:52:17.338Z,1.79
2023-04-17T12:53:17.373Z,1.63
2023-04-17T12:54:17.376Z,1.62
2023-04-17T12:55:17.332Z,1.63
2023-04-17T12:56:17.349Z,1.32
2023-04-17T12:57:17.390Z,1.62
2023-04-17T12:58:17.380Z,2.24
2023-04-17T12:59:17.391Z,1.30
2023-04-17T13:00:17.340Z,1.84
2023-04-17T13:01:17.412Z,1.66
2023-04-17T13:02:17.428Z,1.23
2023-04-17T13:03:17.528Z,1.78
2023-04-17T13:04:17.866Z,1.60
2023-04-17T13:05:17.336Z,1.50
2023-04-17T13:06:17.328Z,1.39
2023-04-17T13:07:17.333Z,1.34
2023-04-17T13:08:17.330Z,1.58
2023-04-17T13:09:17.359Z,1.58
2023-04-17T13:10:17.358Z,1.83
2023-04-17T13:11:17.338Z,1.28
2023-04-17T13:12:17.377Z,1.37
2023-04-17T13:13:17.377Z,1.40
2023-04-17T13:14:17.381Z,1.49
2023-04-17T13:15:17.349Z,1.81
2023-04-17T13:16:17.375Z,1.64
2023-04-17T13:17:17.726Z,1.64
2023-04-17T13:18:17.375Z,1.23
2023-04-17T13:19:17.366Z,1.49